sensor_id;sensor_type;location;lat;lon;timestamp;pressure;altitude;pressure_sealevel;temperature;humidity
64200;BME280;50516;52.272;5.136;2022-10-23T00:01:00;101395.25;;;13.63;88.57
64200;BME280;50516;52.272;5.136;2022-10-23T00:03:25;101387.25;;;13.62;88.45
64200;BME280;50516;52.272;5.136;2022-10-23T00:05:50;101393.59;;;13.62;88.53
64200;BME280;50516;52.272;5.136;2022-10-23T00:08:16;101388.34;;;13.61;88.57
64200;BME280;50516;52.272;5.136;2022-10-23T00:10:42;101382.84;;;13.61;88.47
64200;BME280;50516;52.272;5.136;2022-10-23T00:13:08;101385.63;;;13.56;88.70
64200;BME280;50516;52.272;5.136;2022-10-23T00:15:35;101386.44;;;13.56;88.87
64200;BME280;50516;52.272;5.136;2022-10-23T00:18:01;101389.75;;;13.58;88.92
64200;BME280;50516;52.272;5.136;2022-10-23T00:20:27;101395.81;;;13.60;88.99
64200;BME280;50516;52.272;5.136;2022-10-23T00:22:52;101400.78;;;13.58;88.81
64200;BME280;50516;52.272;5.136;2022-10-23T00:25:18;101402.16;;;13.56;88.51
64200;BME280;50516;52.272;5.136;2022-10-23T00:27:44;101397.47;;;13.56;88.91
64200;BME280;50516;52.272;5.136;2022-10-23T00:30:10;101403.53;;;13.53;89.06
64200;BME280;50516;52.272;5.136;2022-10-23T00:32:36;101396.94;;;13.49;88.43
64200;BME280;50516;52.272;5.136;2022-10-23T00:35:01;101390.59;;;13.48;89.03
64200;BME280;50516;52.272;5.136;2022-10-23T00:37:27;101381.75;;;13.46;89.42
64200;BME280;50516;52.272;5.136;2022-10-23T00:39:52;101378.19;;;13.46;89.06
64200;BME280;50516;52.272;5.136;2022-10-23T00:42:19;101384.25;;;13.43;89.26
64200;BME280;50516;52.272;5.136;2022-10-23T00:47:12;101377.66;;;13.44;88.61
64200;BME280;50516;52.272;5.136;2022-10-23T00:49:37;101384.25;;;13.43;88.70
64200;BME280;50516;52.272;5.136;2022-10-23T00:52:06;101381.50;;;13.43;89.06
64200;BME280;50516;52.272;5.136;2022-10-23T00:54:35;101376.53;;;13.40;88.84
64200;BME280;50516;52.272;5.136;2022-10-23T00:57:02;101377.34;;;13.40;89.20
64200;BME280;50516;52.272;5.136;2022-10-23T00:59:29;101369.66;;;13.42;89.38
64200;BME280;50516;52.272;5.136;2022-10-23T01:01:55;101372.69;;;13.41;89.34
64200;BME280;50516;52.272;5.136;2022-10-23T01:04:21;101365.75;;;13.43;89.28
64200;BME280;50516;52.272;5.136;2022-10-23T01:07:00;101367.44;;;13.39;89.35
64200;BME280;50516;52.272;5.136;2022-10-23T01:12:39;101375.72;;;13.39;89.32
64200;BME280;50516;52.272;5.136;2022-10-23T01:15:15;101371.03;;;13.35;89.15
64200;BME280;50516;52.272;5.136;2022-10-23T01:17:50;101366.91;;;13.37;89.34
64200;BME280;50516;52.272;5.136;2022-10-23T01:31:38;101358.91;;;13.36;89.55
64200;BME280;50516;52.272;5.136;2022-10-23T01:34:13;101358.06;;;13.35;89.50
64200;BME280;50516;52.272;5.136;2022-10-23T01:36:41;101364.41;;;13.36;89.57
64200;BME280;50516;52.272;5.136;2022-10-23T01:39:14;101364.41;;;13.36;89.75
64200;BME280;50516;52.272;5.136;2022-10-23T01:41:45;101357.78;;;13.37;89.57
64200;BME280;50516;52.272;5.136;2022-10-23T01:44:21;101345.41;;;13.34;89.04
64200;BME280;50516;52.272;5.136;2022-10-23T01:46:49;101345.66;;;13.32;89.03
64200;BME280;50516;52.272;5.136;2022-10-23T01:49:18;101343.72;;;13.33;89.40
64200;BME280;50516;52.272;5.136;2022-10-23T01:51:53;101342.63;;;13.34;89.48
64200;BME280;50516;52.272;5.136;2022-10-23T01:54:24;101346.22;;;13.35;89.47
64200;BME280;50516;52.272;5.136;2022-10-23T01:56:51;101340.69;;;13.35;89.57
64200;BME280;50516;52.272;5.136;2022-10-23T01:59:22;101336.28;;;13.33;89.75
64200;BME280;50516;52.272;5.136;2022-10-23T02:01:50;101335.69;;;13.31;89.91
64200;BME280;50516;52.272;5.136;2022-10-23T02:04:22;101327.97;;;13.28;90.08
64200;BME280;50516;52.272;5.136;2022-10-23T02:06:49;101324.94;;;13.30;90.37
64200;BME280;50516;52.272;5.136;2022-10-23T02:09:15;101321.38;;;13.29;90.29
64200;BME280;50516;52.272;5.136;2022-10-23T02:11:51;101311.44;;;13.28;90.34
64200;BME280;50516;52.272;5.136;2022-10-23T02:14:33;101308.13;;;13.31;90.49
64200;BME280;50516;52.272;5.136;2022-10-23T02:17:09;101314.72;;;13.30;90.15
64200;BME280;50516;52.272;5.136;2022-10-23T02:19:41;101317.22;;;13.27;90.40
64200;BME280;50516;52.272;5.136;2022-10-23T02:22:17;101308.69;;;13.28;90.20
64200;BME280;50516;52.272;5.136;2022-10-23T02:24:55;101296.84;;;13.28;90.34
64200;BME280;50516;52.272;5.136;2022-10-23T02:27:31;101297.66;;;13.28;90.44
64200;BME280;50516;52.272;5.136;2022-10-23T02:30:06;101296.00;;;13.27;90.55
64200;BME280;50516;52.272;5.136;2022-10-23T02:32:33;101283.88;;;13.23;90.46
64200;BME280;50516;52.272;5.136;2022-10-23T02:34:59;101284.44;;;13.20;90.65
64200;BME280;50516;52.272;5.136;2022-10-23T02:37:25;101285.00;;;13.17;90.73
64200;BME280;50516;52.272;5.136;2022-10-23T02:39:51;101286.66;;;13.18;90.84
64200;BME280;50516;52.272;5.136;2022-10-23T02:42:27;101286.66;;;13.18;90.81
64200;BME280;50516;52.272;5.136;2022-10-23T02:47:34;101285.00;;;13.17;90.47
64200;BME280;50516;52.272;5.136;2022-10-23T02:55:37;101276.19;;;13.15;90.50
64200;BME280;50516;52.272;5.136;2022-10-23T02:58:19;101274.78;;;13.12;90.54
64200;BME280;50516;52.272;5.136;2022-10-23T03:00:54;101274.25;;;13.10;90.69
64200;BME280;50516;52.272;5.136;2022-10-23T03:03:26;101275.06;;;13.11;90.36
64200;BME280;50516;52.272;5.136;2022-10-23T03:05:54;101269.56;;;13.11;90.52
64200;BME280;50516;52.272;5.136;2022-10-23T03:08:20;101268.47;;;13.12;90.71
64200;BME280;50516;52.272;5.136;2022-10-23T03:10:45;101264.91;;;13.11;90.46
64200;BME280;50516;52.272;5.136;2022-10-23T03:13:10;101257.44;;;13.07;90.82
64200;BME280;50516;52.272;5.136;2022-10-23T03:15:36;101260.75;;;13.09;90.79
64200;BME280;50516;52.272;5.136;2022-10-23T03:18:01;101259.09;;;13.08;90.49
64200;BME280;50516;52.272;5.136;2022-10-23T03:20:26;101251.94;;;13.07;90.64
64200;BME280;50516;52.272;5.136;2022-10-23T03:22:52;101250.28;;;13.06;90.72
64200;BME280;50516;52.272;5.136;2022-10-23T03:25:17;101255.25;;;13.04;90.68
64200;BME280;50516;52.272;5.136;2022-10-23T03:27:42;101250.28;;;13.06;90.67
64200;BME280;50516;52.272;5.136;2022-10-23T03:30:08;101242.56;;;13.03;90.62
64200;BME280;50516;52.272;5.136;2022-10-23T03:32:33;101238.19;;;13.02;90.84
64200;BME280;50516;52.272;5.136;2022-10-23T03:34:59;101232.66;;;13.02;90.76
64200;BME280;50516;52.272;5.136;2022-10-23T03:37:25;101238.72;;;13.04;90.91
64200;BME280;50516;52.272;5.136;2022-10-23T03:39:50;101242.84;;;13.01;90.93
64200;BME280;50516;52.272;5.136;2022-10-23T03:42:15;101231.00;;;13.01;90.84
64200;BME280;50516;52.272;5.136;2022-10-23T03:44:41;101233.22;;;12.99;90.44
64200;BME280;50516;52.272;5.136;2022-10-23T03:47:06;101228.53;;;12.99;90.79
64200;BME280;50516;52.272;5.136;2022-10-23T03:49:34;101227.72;;;12.99;90.86
64200;BME280;50516;52.272;5.136;2022-10-23T03:51:59;101223.81;;;13.00;90.86
64200;BME280;50516;52.272;5.136;2022-10-23T03:54:26;101222.47;;;12.97;90.97
64200;BME280;50516;52.272;5.136;2022-10-23T03:56:53;101212.53;;;12.96;90.92
64200;BME280;50516;52.272;5.136;2022-10-23T03:59:18;101210.06;;;12.94;91.13
64200;BME280;50516;52.272;5.136;2022-10-23T04:01:44;101204.81;;;12.98;91.31
64200;BME280;50516;52.272;5.136;2022-10-23T04:04:10;101192.72;;;12.94;91.21
64200;BME280;50516;52.272;5.136;2022-10-23T04:06:36;101184.19;;;12.90;91.78
64200;BME280;50516;52.272;5.136;2022-10-23T04:09:02;101182.25;;;12.86;91.92
64200;BME280;50516;52.272;5.136;2022-10-23T04:11:28;101175.06;;;12.90;91.81
64200;BME280;50516;52.272;5.136;2022-10-23T04:13:53;101172.03;;;12.91;91.98
64200;BME280;50516;52.272;5.136;2022-10-23T04:16:18;101174.78;;;12.96;91.57
64200;BME280;50516;52.272;5.136;2022-10-23T04:18:44;101179.19;;;12.97;91.42
64200;BME280;50516;52.272;5.136;2022-10-23T04:21:10;101176.97;;;12.94;91.50
64200;BME280;50516;52.272;5.136;2022-10-23T04:23:35;101167.34;;;12.97;91.80
64200;BME280;50516;52.272;5.136;2022-10-23T04:26:00;101162.66;;;12.97;91.65
64200;BME280;50516;52.272;5.136;2022-10-23T04:28:26;101163.47;;;12.93;92.10
64200;BME280;50516;52.272;5.136;2022-10-23T04:30:52;101164.84;;;13.01;91.82
64200;BME280;50516;52.272;5.136;2022-10-23T04:33:17;101156.28;;;13.02;91.71
64200;BME280;50516;52.272;5.136;2022-10-23T04:35:42;101154.34;;;13.03;91.76
64200;BME280;50516;52.272;5.136;2022-10-23T04:38:08;101147.75;;;12.93;91.95
64200;BME280;50516;52.272;5.136;2022-10-23T04:40:34;101141.13;;;13.00;91.94
64200;BME280;50516;52.272;5.136;2022-10-23T04:43:00;101142.22;;;13.04;91.80
64200;BME280;50516;52.272;5.136;2022-10-23T04:45:25;101148.03;;;13.02;91.35
64200;BME280;50516;52.272;5.136;2022-10-23T04:47:50;101143.34;;;13.03;91.53
64200;BME280;50516;52.272;5.136;2022-10-23T04:50:18;101140.81;;;13.06;91.51
64200;BME280;50516;52.272;5.136;2022-10-23T04:52:44;101138.09;;;13.01;91.99
64200;BME280;50516;52.272;5.136;2022-10-23T04:55:10;101136.72;;;13.04;91.88
64200;BME280;50516;52.272;5.136;2022-10-23T04:57:36;101132.88;;;13.00;91.93
64200;BME280;50516;52.272;5.136;2022-10-23T05:00:02;101124.59;;;13.00;92.13
64200;BME280;50516;52.272;5.136;2022-10-23T05:02:28;101116.59;;;12.98;91.93
64200;BME280;50516;52.272;5.136;2022-10-23T05:04:53;101118.56;;;12.97;92.38
64200;BME280;50516;52.272;5.136;2022-10-23T05:07:18;101125.44;;;13.00;92.45
64200;BME280;50516;52.272;5.136;2022-10-23T05:09:44;101131.78;;;13.01;92.26
64200;BME280;50516;52.272;5.136;2022-10-23T05:12:09;101135.09;;;12.97;92.38
64200;BME280;50516;52.272;5.136;2022-10-23T05:14:34;101140.09;;;12.90;92.84
64200;BME280;50516;52.272;5.136;2022-10-23T05:17:10;101132.88;;;12.94;93.15
64200;BME280;50516;52.272;5.136;2022-10-23T05:19:41;101132.06;;;12.99;92.86
64200;BME280;50516;52.272;5.136;2022-10-23T05:22:09;101122.97;;;12.99;92.59
64200;BME280;50516;52.272;5.136;2022-10-23T05:24:35;101127.31;;;13.05;92.55
64200;BME280;50516;52.272;5.136;2022-10-23T05:27:00;101125.41;;;13.05;92.59
64200;BME280;50516;52.272;5.136;2022-10-23T05:29:25;101129.25;;;13.09;92.46
64200;BME280;50516;52.272;5.136;2022-10-23T05:31:53;101125.94;;;13.07;92.66
64200;BME280;50516;52.272;5.136;2022-10-23T05:34:21;101119.06;;;13.10;92.36
64200;BME280;50516;52.272;5.136;2022-10-23T05:36:50;101121.81;;;13.10;92.40
64200;BME280;50516;52.272;5.136;2022-10-23T05:39:16;101116.31;;;13.10;92.60
64200;BME280;50516;52.272;5.136;2022-10-23T05:41:41;101111.84;;;13.14;92.41
64200;BME280;50516;52.272;5.136;2022-10-23T05:44:06;101105.25;;;13.15;92.74
64200;BME280;50516;52.272;5.136;2022-10-23T05:46:32;101110.19;;;13.18;92.61
64200;BME280;50516;52.272;5.136;2022-10-23T05:48:57;101104.69;;;13.18;92.66
64200;BME280;50516;52.272;5.136;2022-10-23T05:51:22;101105.22;;;13.20;92.81
64200;BME280;50516;52.272;5.136;2022-10-23T05:53:48;101102.47;;;13.20;93.06
64200;BME280;50516;52.272;5.136;2022-10-23T05:56:14;101109.59;;;13.26;92.56
64200;BME280;50516;52.272;5.136;2022-10-23T05:58:39;101100.22;;;13.27;92.60
64200;BME280;50516;52.272;5.136;2022-10-23T06:01:06;101102.41;;;13.25;92.93
64200;BME280;50516;52.272;5.136;2022-10-23T06:03:32;101100.75;;;13.29;92.78
64200;BME280;50516;52.272;5.136;2022-10-23T06:05:58;101095.78;;;13.31;93.08
64200;BME280;50516;52.272;5.136;2022-10-23T06:08:23;101098.81;;;13.35;93.32
64200;BME280;50516;52.272;5.136;2022-10-23T06:10:48;101104.59;;;13.39;93.24
64200;BME280;50516;52.272;5.136;2022-10-23T06:13:14;101102.38;;;13.41;93.09
64200;BME280;50516;52.272;5.136;2022-10-23T06:15:40;101094.91;;;13.41;93.08
64200;BME280;50516;52.272;5.136;2022-10-23T06:18:05;101094.63;;;13.43;93.31
64200;BME280;50516;52.272;5.136;2022-10-23T06:20:30;101097.63;;;13.46;93.06
64200;BME280;50516;52.272;5.136;2022-10-23T06:22:58;101090.22;;;13.47;93.66
64200;BME280;50516;52.272;5.136;2022-10-23T06:25:24;101083.56;;;13.48;93.85
64200;BME280;50516;52.272;5.136;2022-10-23T06:27:49;101082.47;;;13.49;93.62
64200;BME280;50516;52.272;5.136;2022-10-23T06:30:15;101078.00;;;13.53;93.72
64200;BME280;50516;52.272;5.136;2022-10-23T06:32:40;101076.94;;;13.49;94.01
64200;BME280;50516;52.272;5.136;2022-10-23T06:35:06;101083.28;;;13.49;93.86
64200;BME280;50516;52.272;5.136;2022-10-23T06:37:33;101072.25;;;13.49;94.30
64200;BME280;50516;52.272;5.136;2022-10-23T06:39:58;101072.47;;;13.58;93.57
64200;BME280;50516;52.272;5.136;2022-10-23T06:42:23;101075.47;;;13.62;93.67
64200;BME280;50516;52.272;5.136;2022-10-23T06:44:49;101061.69;;;13.62;93.52
64200;BME280;50516;52.272;5.136;2022-10-23T06:47:14;101066.91;;;13.63;93.56
64200;BME280;50516;52.272;5.136;2022-10-23T06:49:40;101057.03;;;13.57;94.05
64200;BME280;50516;52.272;5.136;2022-10-23T06:52:05;101052.59;;;13.61;93.60
64200;BME280;50516;52.272;5.136;2022-10-23T06:54:30;101048.19;;;13.60;94.11
64200;BME280;50516;52.272;5.136;2022-10-23T06:56:56;101056.16;;;13.62;93.93
64200;BME280;50516;52.272;5.136;2022-10-23T06:59:21;101052.56;;;13.66;94.01
64200;BME280;50516;52.272;5.136;2022-10-23T07:01:46;101054.75;;;13.69;94.09
64200;BME280;50516;52.272;5.136;2022-10-23T07:04:12;101047.56;;;13.68;94.34
64200;BME280;50516;52.272;5.136;2022-10-23T07:06:41;101049.22;;;13.69;94.52
64200;BME280;50516;52.272;5.136;2022-10-23T07:09:07;101060.22;;;13.75;94.33
64200;BME280;50516;52.272;5.136;2022-10-23T07:11:33;101054.63;;;13.80;94.05
64200;BME280;50516;52.272;5.136;2022-10-23T07:13:58;101063.44;;;13.82;94.11
64200;BME280;50516;52.272;5.136;2022-10-23T07:16:24;101063.41;;;13.87;93.52
64200;BME280;50516;52.272;5.136;2022-10-23T07:18:54;101059.25;;;13.90;93.86
64200;BME280;50516;52.272;5.136;2022-10-23T07:21:30;101053.44;;;13.91;93.56
64200;BME280;50516;52.272;5.136;2022-10-23T07:23:57;101040.72;;;13.95;93.58
64200;BME280;50516;52.272;5.136;2022-10-23T07:26:23;101047.88;;;13.96;93.45
64200;BME280;50516;52.272;5.136;2022-10-23T07:28:48;101046.13;;;14.05;93.46
64200;BME280;50516;52.272;5.136;2022-10-23T07:31:19;101052.75;;;14.04;93.21
64200;BME280;50516;52.272;5.136;2022-10-23T07:33:44;101052.75;;;14.04;93.31
64200;BME280;50516;52.272;5.136;2022-10-23T07:36:09;101042.72;;;14.14;93.24
64200;BME280;50516;52.272;5.136;2022-10-23T07:38:35;101048.31;;;14.09;93.53
64200;BME280;50516;52.272;5.136;2022-10-23T07:41:01;101046.03;;;14.16;93.34
64200;BME280;50516;52.272;5.136;2022-10-23T07:43:26;101045.22;;;14.15;93.44
64200;BME280;50516;52.272;5.136;2022-10-23T07:45:53;101042.63;;;14.24;93.18
64200;BME280;50516;52.272;5.136;2022-10-23T07:48:19;101038.28;;;14.18;93.40
64200;BME280;50516;52.272;5.136;2022-10-23T07:50:46;101031.56;;;14.24;93.02
64200;BME280;50516;52.272;5.136;2022-10-23T07:53:16;101023.00;;;14.25;93.17
64200;BME280;50516;52.272;5.136;2022-10-23T07:55:42;101017.75;;;14.29;93.22
64200;BME280;50516;52.272;5.136;2022-10-23T07:58:07;101017.75;;;14.29;93.34
64200;BME280;50516;52.272;5.136;2022-10-23T08:00:33;101024.59;;;14.32;93.27
64200;BME280;50516;52.272;5.136;2022-10-23T08:02:58;101031.66;;;14.43;92.89
64200;BME280;50516;52.272;5.136;2022-10-23T08:05:24;101017.47;;;14.50;92.77
64200;BME280;50516;52.272;5.136;2022-10-23T08:07:49;101017.75;;;14.53;92.47
64200;BME280;50516;52.272;5.136;2022-10-23T08:10:15;101016.31;;;14.56;92.51
64200;BME280;50516;52.272;5.136;2022-10-23T08:12:40;101017.91;;;14.62;92.24
64200;BME280;50516;52.272;5.136;2022-10-23T08:15:06;101020.69;;;14.62;92.37
64200;BME280;50516;52.272;5.136;2022-10-23T08:17:31;101019.03;;;14.61;92.70
64200;BME280;50516;52.272;5.136;2022-10-23T08:19:56;101011.28;;;14.63;92.17
64200;BME280;50516;52.272;5.136;2022-10-23T08:22:22;101014.50;;;14.70;92.32
64200;BME280;50516;52.272;5.136;2022-10-23T08:24:47;101007.56;;;14.73;92.33
64200;BME280;50516;52.272;5.136;2022-10-23T08:27:12;101003.16;;;14.72;92.61
64200;BME280;50516;52.272;5.136;2022-10-23T08:29:38;101000.19;;;14.87;92.12
64200;BME280;50516;52.272;5.136;2022-10-23T08:32:03;101000.31;;;14.77;92.09
64200;BME280;50516;52.272;5.136;2022-10-23T08:34:28;100990.91;;;14.78;92.25
64200;BME280;50516;52.272;5.136;2022-10-23T08:36:54;100991.94;;;14.82;92.38
64200;BME280;50516;52.272;5.136;2022-10-23T08:39:19;100997.09;;;14.89;92.12
64200;BME280;50516;52.272;5.136;2022-10-23T08:41:50;100981.16;;;14.86;91.85
64200;BME280;50516;52.272;5.136;2022-10-23T08:47:18;100979.41;;;14.90;92.39
64200;BME280;50516;52.272;5.136;2022-10-23T08:49:54;100975.97;;;14.98;91.93
64200;BME280;50516;52.272;5.136;2022-10-23T08:55:17;100966.28;;;15.01;91.67
64200;BME280;50516;52.272;5.136;2022-10-23T08:57:55;100957.69;;;15.02;92.05
64200;BME280;50516;52.272;5.136;2022-10-23T09:00:21;100955.50;;;14.99;92.10
64200;BME280;50516;52.272;5.136;2022-10-23T09:02:49;100947.13;;;15.04;91.95
64200;BME280;50516;52.272;5.136;2022-10-23T09:05:23;100953.47;;;15.05;92.05
64200;BME280;50516;52.272;5.136;2022-10-23T09:16:21;100933.13;;;15.14;92.06
64200;BME280;50516;52.272;5.136;2022-10-23T09:18:49;100930.31;;;15.20;91.61
64200;BME280;50516;52.272;5.136;2022-10-23T09:21:15;100925.50;;;15.25;91.66
64200;BME280;50516;52.272;5.136;2022-10-23T09:23:41;100921.53;;;15.31;91.75
64200;BME280;50516;52.272;5.136;2022-10-23T09:26:17;100915.59;;;15.38;91.34
64200;BME280;50516;52.272;5.136;2022-10-23T09:28:49;100907.81;;;15.40;90.91
64200;BME280;50516;52.272;5.136;2022-10-23T09:31:15;100902.72;;;15.47;91.34
64200;BME280;50516;52.272;5.136;2022-10-23T09:33:41;100910.94;;;15.52;91.09
64200;BME280;50516;52.272;5.136;2022-10-23T09:36:19;100907.66;;;15.50;90.87
64200;BME280;50516;52.272;5.136;2022-10-23T09:43:44;100910.94;;;15.52;90.87
64200;BME280;50516;52.272;5.136;2022-10-23T09:46:09;100886.03;;;15.52;90.77
64200;BME280;50516;52.272;5.136;2022-10-23T09:48:37;100891.47;;;15.58;90.34
64200;BME280;50516;52.272;5.136;2022-10-23T09:51:25;100905.28;;;15.58;90.46
64200;BME280;50516;52.272;5.136;2022-10-23T09:53:54;100901.22;;;15.55;90.77
64200;BME280;50516;52.272;5.136;2022-10-23T09:56:28;100893.28;;;15.48;90.99
64200;BME280;50516;52.272;5.136;2022-10-23T09:59:00;100887.53;;;15.45;91.03
64200;BME280;50516;52.272;5.136;2022-10-23T10:01:30;100884.97;;;15.48;91.06
64200;BME280;50516;52.272;5.136;2022-10-23T10:03:56;100879.53;;;15.43;91.30
64200;BME280;50516;52.272;5.136;2022-10-23T10:06:27;100872.28;;;15.47;91.42
64200;BME280;50516;52.272;5.136;2022-10-23T10:09:06;100869.63;;;15.42;91.83
64200;BME280;50516;52.272;5.136;2022-10-23T10:11:51;100860.38;;;15.47;91.93
64200;BME280;50516;52.272;5.136;2022-10-23T10:14:34;100868.00;;;15.55;91.72
64200;BME280;50516;52.272;5.136;2022-10-23T10:22:24;100867.06;;;15.60;91.88
64200;BME280;50516;52.272;5.136;2022-10-23T10:25:14;100875.06;;;15.61;91.79
64200;BME280;50516;52.272;5.136;2022-10-23T10:28:06;100859.91;;;15.59;91.47
64200;BME280;50516;52.272;5.136;2022-10-23T10:30:45;100852.50;;;15.68;91.25
64200;BME280;50516;52.272;5.136;2022-10-23T10:33:21;100856.31;;;15.72;91.17
64200;BME280;50516;52.272;5.136;2022-10-23T10:35:58;100847.41;;;15.75;90.84
64200;BME280;50516;52.272;5.136;2022-10-23T10:38:49;100843.13;;;15.83;90.50
64200;BME280;50516;52.272;5.136;2022-10-23T10:41:29;100824.88;;;15.82;90.34
64200;BME280;50516;52.272;5.136;2022-10-23T10:44:52;100821.09;;;15.78;90.23
64200;BME280;50516;52.272;5.136;2022-10-23T10:47:19;100805.38;;;15.87;89.94
64200;BME280;50516;52.272;5.136;2022-10-23T10:49:54;100803.22;;;15.84;90.28
64200;BME280;50516;52.272;5.136;2022-10-23T10:53:03;100804.06;;;15.84;90.30
64200;BME280;50516;52.272;5.136;2022-10-23T10:55:37;100813.28;;;15.80;90.31
64200;BME280;50516;52.272;5.136;2022-10-23T10:58:14;100803.44;;;15.87;90.35
64200;BME280;50516;52.272;5.136;2022-10-23T11:00:43;100804.34;;;15.97;90.38
64200;BME280;50516;52.272;5.136;2022-10-23T11:05:59;100787.31;;;16.03;89.52
64200;BME280;50516;52.272;5.136;2022-10-23T11:11:03;100772.22;;;16.10;89.10
64200;BME280;50516;52.272;5.136;2022-10-23T11:13:36;100762.78;;;16.11;89.28
64200;BME280;50516;52.272;5.136;2022-10-23T11:16:12;100759.41;;;16.14;89.05
64200;BME280;50516;52.272;5.136;2022-10-23T11:18:43;100749.53;;;16.21;88.71
64200;BME280;50516;52.272;5.136;2022-10-23T11:23:56;100743.28;;;16.38;87.51
64200;BME280;50516;52.272;5.136;2022-10-23T11:26:43;100724.03;;;16.56;87.67
64200;BME280;50516;52.272;5.136;2022-10-23T11:29:43;100724.47;;;16.72;86.99
64200;BME280;50516;52.272;5.136;2022-10-23T11:37:22;100711.97;;;16.83;85.71
64200;BME280;50516;52.272;5.136;2022-10-23T11:45:24;100701.50;;;17.11;84.70
64200;BME280;50516;52.272;5.136;2022-10-23T11:48:01;100694.22;;;17.24;84.29
64200;BME280;50516;52.272;5.136;2022-10-23T11:50:49;100687.88;;;17.32;83.69
64200;BME280;50516;52.272;5.136;2022-10-23T11:53:26;100676.13;;;17.36;83.97
64200;BME280;50516;52.272;5.136;2022-10-23T11:56:02;100677.28;;;17.34;82.98
64200;BME280;50516;52.272;5.136;2022-10-23T11:58:40;100664.53;;;17.33;83.30
64200;BME280;50516;52.272;5.136;2022-10-23T12:01:29;100660.31;;;17.45;83.32
64200;BME280;50516;52.272;5.136;2022-10-23T12:03:59;100662.78;;;17.55;83.29
64200;BME280;50516;52.272;5.136;2022-10-23T12:06:29;100659.38;;;17.58;83.18
64200;BME280;50516;52.272;5.136;2022-10-23T12:09:03;100649.75;;;17.64;82.09
64200;BME280;50516;52.272;5.136;2022-10-23T12:11:39;100627.38;;;17.69;82.48
64200;BME280;50516;52.272;5.136;2022-10-23T12:14:25;100646.00;;;17.69;81.80
64200;BME280;50516;52.272;5.136;2022-10-23T12:16:51;100635.03;;;17.73;81.53
64200;BME280;50516;52.272;5.136;2022-10-23T12:19:24;100636.03;;;17.77;82.13
64200;BME280;50516;52.272;5.136;2022-10-23T12:21:54;100633.28;;;17.77;81.95
64200;BME280;50516;52.272;5.136;2022-10-23T12:30:03;100615.44;;;17.78;81.18
64200;BME280;50516;52.272;5.136;2022-10-23T12:38:23;100595.41;;;17.90;81.02
64200;BME280;50516;52.272;5.136;2022-10-23T12:40:51;100588.81;;;17.85;81.12
64200;BME280;50516;52.272;5.136;2022-10-23T12:43:29;100592.28;;;17.91;81.10
64200;BME280;50516;52.272;5.136;2022-10-23T12:48:49;100584.06;;;17.86;81.04
64200;BME280;50516;52.272;5.136;2022-10-23T12:51:27;100578.03;;;17.84;80.73
64200;BME280;50516;52.272;5.136;2022-10-23T12:53:53;100582.13;;;17.95;80.08
64200;BME280;50516;52.272;5.136;2022-10-23T12:56:19;100570.06;;;17.91;80.86
64200;BME280;50516;52.272;5.136;2022-10-23T12:58:49;100574.31;;;17.88;81.12
64200;BME280;50516;52.272;5.136;2022-10-23T13:03:48;100560.56;;;17.92;81.38
64200;BME280;50516;52.272;5.136;2022-10-23T13:06:14;100563.34;;;17.92;81.03
64200;BME280;50516;52.272;5.136;2022-10-23T13:08:42;100571.34;;;17.94;81.23
64200;BME280;50516;52.272;5.136;2022-10-23T13:11:12;100559.44;;;17.93;81.13
64200;BME280;50516;52.272;5.136;2022-10-23T13:13:40;100551.75;;;17.99;80.36
64200;BME280;50516;52.272;5.136;2022-10-23T13:16:17;100549.28;;;18.06;79.91
64200;BME280;50516;52.272;5.136;2022-10-23T13:18:43;100542.41;;;18.12;79.49
64200;BME280;50516;52.272;5.136;2022-10-23T13:21:23;100542.56;;;18.16;79.87
64200;BME280;50516;52.272;5.136;2022-10-23T13:23:50;100531.41;;;18.24;78.61
64200;BME280;50516;52.272;5.136;2022-10-23T13:26:32;100527.81;;;18.24;79.39
64200;BME280;50516;52.272;5.136;2022-10-23T13:29:01;100523.72;;;18.30;79.18
64200;BME280;50516;52.272;5.136;2022-10-23T13:31:30;100521.41;;;18.32;79.14
64200;BME280;50516;52.272;5.136;2022-10-23T13:36:26;100499.56;;;18.22;78.03
64200;BME280;50516;52.272;5.136;2022-10-23T13:41:28;100488.25;;;18.27;78.55
64200;BME280;50516;52.272;5.136;2022-10-23T13:43:55;100478.28;;;18.26;77.99
64200;BME280;50516;52.272;5.136;2022-10-23T13:46:22;100469.94;;;18.26;78.29
64200;BME280;50516;52.272;5.136;2022-10-23T13:48:49;100464.06;;;18.28;78.09
64200;BME280;50516;52.272;5.136;2022-10-23T13:51:21;100460.94;;;18.29;77.55
64200;BME280;50516;52.272;5.136;2022-10-23T13:53:48;100459.81;;;18.30;78.13
64200;BME280;50516;52.272;5.136;2022-10-23T13:56:17;100454.38;;;18.34;77.88
64200;BME280;50516;52.272;5.136;2022-10-23T13:58:42;100454.25;;;18.30;78.50
64200;BME280;50516;52.272;5.136;2022-10-23T14:01:19;100468.47;;;18.29;78.31
64200;BME280;50516;52.272;5.136;2022-10-23T14:03:46;100442.16;;;18.26;78.72
64200;BME280;50516;52.272;5.136;2022-10-23T14:06:11;100447.19;;;18.33;78.18
64200;BME280;50516;52.272;5.136;2022-10-23T14:08:37;100443.94;;;18.31;78.19
64200;BME280;50516;52.272;5.136;2022-10-23T14:11:02;100451.47;;;18.30;78.55
64200;BME280;50516;52.272;5.136;2022-10-23T14:13:27;100442.16;;;18.26;78.09
64200;BME280;50516;52.272;5.136;2022-10-23T14:15:53;100437.13;;;18.19;78.19
64200;BME280;50516;52.272;5.136;2022-10-23T14:18:19;100440.22;;;18.18;78.16
64200;BME280;50516;52.272;5.136;2022-10-23T14:20:44;100430.28;;;18.17;78.84
64200;BME280;50516;52.272;5.136;2022-10-23T14:23:10;100433.06;;;18.17;78.99
64200;BME280;50516;52.272;5.136;2022-10-23T14:25:35;100428.97;;;18.14;79.03
64200;BME280;50516;52.272;5.136;2022-10-23T14:28:01;100427.50;;;18.17;78.72
64200;BME280;50516;52.272;5.136;2022-10-23T14:30:26;100426.81;;;18.20;78.96